x

Georgian Bay (45137) Wave Buoy

12:00am - Sat 3rd Dec 2016 All times are CST. -6 hours from GMT.

  • Sig Wave height 3.3ft
  • Peak Period 4s
  • Wind
    16mph, 20mph gusts
  • Sea Temp 45°f
  • Air Temp 36°f
  • Sea Pressure 1019.7mb
  • Georgian Bay
  • Georgian Bay

More Historic Weather Station data

Upgrade to MSW Pro to gain access to the past 30 days of data for over 8000 Wavebouys and Weather Stations around the globe.

Join Pro

Comparision Forecast

View Surf forecast
   
Sat 12/03 12:00am 3.5ft 4s 16 20 mph 1019.7mb 45f 36f
Fri 12/02 11:00pm 3.5ft 4s 18 25 mph 1019.2mb 45f 37f
10:00pm  -   -  20
mph
1018.6mb - 37f
9:00pm  -   -  22
mph
1017.9mb - 37f
8:00pm 3.5ft 5s 22 27 mph 1017.2mb 45f 37f
7:00pm 3.5ft 5s 22 27 mph 1016.6mb 45f 38f
6:00pm 4ft 5s 22 27 mph 1015.7mb 45f 38f
5:00pm 4ft 5s 22 27 mph 1015.1mb 45f 39f
4:00pm 3.5ft 4s 22 25 mph 1014.1mb 45f 39f
3:00pm  -   -  22
mph
- - -
2:00pm 3.5ft 5s 22 27 mph 1012.3mb 45f 38f
12:00pm  -   -  20
mph
1010.8mb - 38f
11:00am 3.5ft 5s 20 27 mph 1010.5mb 45f 37f
10:00am 3.5ft 5s 20 27 mph 1010.3mb 45f 37f
9:00am 3.5ft 5s 20 22 mph 1009.9mb 45f 38f
8:00am 4ft 5s 20 27 mph 1009.2mb 45f 37f
7:00am 3.5ft 5s 22 25 mph 1008.7mb 45f 37f
6:00am 4.5ft 5s 22 27 mph 1007.9mb 45f 38f
5:00am 5ft 5s 22 25 mph 1007.3mb 45f 38f
4:00am 5ft 5s 22 27 mph 1006.5mb 45f 38f
3:00am 5ft 5s 22 27 mph 1005.9mb 45f 40f
2:00am 5ft 5s 25 29 mph 1005.1mb 45f 41f
Thu 12/01 11:00pm  -   -  27
mph
1003.3mb - 41f
10:00pm 4.5ft 5s 22 29 mph 1003mb 45f 42f
9:00pm 4ft 5s 25 29 mph 1002.6mb 45f 42f
8:00pm 3.5ft 5s 22 25 mph 1002.5mb 45f 42f
7:00pm 4.5ft 5s 20 25 mph 1002mb 45f 43f
6:00pm 3.5ft 5s 20 22 mph 1001.8mb 45f 43f
5:00pm 4ft 5s 22 27 mph 1001.5mb 45f 43f
4:00pm 4ft 5s 25 31 mph 1001.2mb 46f 43f
3:00pm 4ft 5s 20 27 mph 1000.7mb 46f 44f
2:00pm 3.5ft 4s 20 27 mph 1000.3mb 46f 43f
1:00pm 3.5ft 5s 22 27 mph 999.5mb 46f 43f
11:00am 4ft 5s 18 22 mph 999.3mb 46f 42f
10:00am 4.5ft 5s 22 25 mph 999.1mb 46f 42f
9:00am 4.5ft 5s 22 27 mph 999mb 46f 42f
8:00am 4.5ft 5s 22 27 mph 998.7mb 46f 42f
7:00am 5ft 5s 20 22 mph 998.7mb 46f 42f
6:00am 4.5ft 5s 20 25 mph 998.4mb 46f 42f
5:00am 4.5ft 5s 22 29 mph 997.8mb 46f 42f
4:00am 5ft 5s 25 29 mph 997.2mb 45f 42f
3:00am 3.5ft 5s 27 31 mph 996.6mb 46f 44f
2:00am 2.5ft 3s 25 29 mph 996.3mb 46f 44f
1:00am 1.3ft 3s 20 25 mph 996mb 46f 45f
12:00am 1ft 4s 16 18 mph 995.6mb 46f 45f
Wed 11/30 11:00pm 1ft 4s 11 16 mph 995.4mb 46f 45f
10:00pm 1ft 4s 7 9 mph 995.5mb 46f 46f
9:00pm 1.3ft 4s 7 11 mph 995.4mb 46f 45f
8:00pm 1.3ft 5s 9 11 mph 997mb 46f 45f
6:00pm  -   -  7
mph
- - -
4:00pm 2ft 5s 9 13 mph 998.4mb 46f 47f
3:00pm 2ft 5s 9
mph
998.8mb 46f 47f
2:00pm 2.5ft 5s 9 11 mph 999.2mb 46f 47f
1:00pm 2.5ft 5s 13
mph
999.4mb 46f 47f
12:00pm 2.5ft 5s 11 13 mph 1000.5mb 46f 46f
11:00am 2.5ft 5s 16 18 mph 1001mb 46f 47f
10:00am 2.5ft 4s 13 18 mph 1002mb 46f 47f
9:00am 1.6ft 4s 13 16 mph 1003.1mb 46f 47f
8:00am 1.6ft 4s 11 13 mph 1003.8mb 46f 46f
7:00am 1.3ft 4s 13 16 mph 1004.4mb 46f 46f
6:00am 1.6ft 4s 13
mph
1004.7mb 46f 46f
5:00am 1.6ft 4s 9 13 mph 1004.7mb 46f 47f
4:00am 2ft 4s 11 13 mph 1005.4mb 46f 48f
3:00am 2ft 4s 13 16 mph 1005.6mb 46f 48f
2:00am 2ft 4s 13 16 mph 1005.9mb 46f 47f
1:00am  -   -  11
mph
1005.7mb - 48f
12:00am 2.5ft 4s 11 13 mph 1005.9mb 46f 48f
Tue 11/29 11:00pm 2.5ft 4s 13
mph
1005.9mb 46f 48f
10:00pm 2.5ft 4s 16 18 mph 1006mb 46f 49f
9:00pm 2.5ft 4s 16 18 mph 1006mb 46f 49f
8:00pm 2.5ft 4s 13 16 mph 1005.6mb 46f 49f
7:00pm 2.5ft 4s 13 16 mph 1005.3mb 46f 49f
6:00pm 2.5ft 4s 13 16 mph 1004.7mb 46f 49f
5:00pm 2.5ft 4s 16
mph
1004.3mb 46f 49f
4:00pm 3ft 5s 13 16 mph 1003.7mb 46f 48f
3:00pm 3.5ft 5s 13 16 mph 1003mb 46f 48f
2:00pm 3.5ft 5s 16 18 mph 1002.2mb 46f 49f
1:00pm 4.5ft 5s 13 16 mph 1002mb 46f 49f
12:00pm 5ft 5s 18 20 mph 1001.6mb 46f 49f
11:00am 5ft 6s 20 22 mph 1001mb 46f 50f
10:00am 5ft 7s 18 20 mph 1000.4mb 46f 49f
9:00am 6.5ft 7s 22 27 mph 999.9mb 46f 49f
8:00am 8ft 8s 22 27 mph 999mb 46f 47f